Time;durP1;ratioP1;P1;durP2;ratioP2;P2;SDS_P1;SDS_P2;PMS_P1;PMS_P2;Temp;Humidity;BMP_temperature;BMP_pressure;BME280_temperature;BME280_humidity;BME280_pressure;Samples;Min_cycle;Max_cycle;Signal;HPM_P1;HPM_P2
2023/08/17 00:01:09;;;;;;;8.80;8.05;;;;;;;-141.84;78.77;21265.22;5024600;28;20230;-67
2023/08/17 00:03:38;;;;;;;9.45;8.45;;;;;;;-141.84;79.42;21273.34;5016775;28;20238;-67
2023/08/17 00:06:06;;;;;;;7.95;7.35;;;;;;;-141.84;79.37;21253.00;5038507;28;20232;-67
2023/08/17 00:08:35;;;;;;;9.07;8.27;;;;;;;-141.84;79.21;21224.56;5043866;28;20641;-67
2023/08/17 00:11:03;;;;;;;9.68;8.77;;;;;;;-141.84;79.50;21236.75;5043726;28;20296;-68
2023/08/17 00:13:32;;;;;;;9.55;8.75;;;;;;;-141.84;78.96;21289.59;5036741;28;20324;-67
2023/08/17 00:16:00;;;;;;;9.90;9.10;;;;;;;-141.84;79.63;21244.88;5055544;28;20228;-66
2023/08/17 00:18:30;;;;;;;9.07;8.38;;;;;;;-141.84;79.90;21216.41;5044492;28;20790;-67
2023/08/17 00:20:59;;;;;;;9.30;8.50;;;;;;;-141.84;79.61;21216.41;5043876;28;20233;-66
2023/08/17 00:23:28;;;;;;;9.00;8.20;;;;;;;-141.84;79.64;21228.63;5036339;28;20260;-67
2023/08/17 00:25:56;;;;;;;8.80;8.00;;;;;;;-141.84;80.10;21183.88;5043928;28;20581;-67
2023/08/17 00:28:25;;;;;;;9.88;9.07;;;;;;;-141.84;79.68;21212.34;5044119;28;20614;-66
2023/08/17 00:30:53;;;;;;;8.88;8.07;;;;;;;-141.84;80.30;21183.88;5057320;28;20767;-66
2023/08/17 00:33:22;;;;;;;10.35;9.25;;;;;;;-141.84;79.68;21202.19;5056850;28;20240;-66
2023/08/17 00:35:52;;;;;;;9.93;9.02;;;;;;;-141.84;80.23;21194.06;5063948;28;20282;-67
2023/08/17 00:38:20;;;;;;;10.25;9.35;;;;;;;-141.84;80.73;21175.75;5063598;28;20228;-67
2023/08/17 00:40:49;;;;;;;10.65;9.55;;;;;;;-141.84;80.62;21167.63;5064235;28;20712;-67
2023/08/17 00:43:17;;;;;;;10.80;9.70;;;;;;;-141.84;81.16;21157.47;5063614;28;20243;-68
2023/08/17 00:45:47;;;;;;;10.68;9.68;;;;;;;-141.84;81.02;21175.75;5048211;28;20294;-67
2023/08/17 00:48:16;;;;;;;10.68;9.63;;;;;;;-141.84;80.58;21165.59;5043558;28;20298;-67
2023/08/17 00:50:48;;;;;;;10.05;9.05;;;;;;;-141.84;80.75;21163.56;5043263;28;20228;-67
2023/08/17 00:53:19;;;;;;;9.82;9.02;;;;;;;-141.84;80.96;21194.06;5043572;28;20662;-67
2023/08/17 00:55:48;;;;;;;9.18;8.48;;;;;;;-141.84;80.85;21159.50;5039419;28;20301;-67
2023/08/17 00:58:17;;;;;;;9.23;8.35;;;;;;;-141.84;80.04;21171.69;5042725;28;20233;-68
2023/08/17 01:00:45;;;;;;;8.85;7.75;;;;;;;-141.84;80.14;21169.66;5043304;28;20239;-67
2023/08/17 01:03:14;;;;;;;9.35;8.10;;;;;;;-141.84;80.20;21129.00;5043154;28;20263;-68
2023/08/17 01:05:43;;;;;;;8.95;8.05;;;;;;;-141.84;79.94;21204.22;5029546;28;20241;-67
2023/08/17 01:08:12;;;;;;;9.52;8.63;;;;;;;-141.84;79.02;21212.34;5025440;28;20250;-68
2023/08/17 01:10:52;;;;;;;8.32;7.63;;;;;;;-141.84;79.52;21173.72;5043481;28;20293;-67
2023/08/17 01:13:26;;;;;;;7.68;7.07;;;;;;;-141.84;79.25;21192.03;5021668;28;20226;-66
2023/08/17 01:15:59;;;;;;;7.97;7.38;;;;;;;-141.84;79.86;21159.50;5032487;28;20260;-67
2023/08/17 01:18:32;;;;;;;7.75;7.07;;;;;;;-141.84;79.59;21185.91;5043075;28;20600;-68
2023/08/17 01:21:02;;;;;;;8.70;8.00;;;;;;;-141.84;79.52;21157.47;5042642;28;20659;-67
2023/08/17 01:23:33;;;;;;;8.23;7.53;;;;;;;-141.84;80.01;21126.97;5035779;28;20664;-67
2023/08/17 01:26:01;;;;;;;8.15;7.47;;;;;;;-141.84;79.76;21175.75;5043040;28;20252;-67
2023/08/17 01:28:30;;;;;;;8.20;7.50;;;;;;;-141.84;80.62;21131.03;5043045;28;20703;-67
2023/08/17 01:31:04;;;;;;;7.90;7.20;;;;;;;-141.84;80.31;21108.66;5057017;28;20678;-68
2023/08/17 01:33:37;;;;;;;8.27;7.43;;;;;;;-141.84;80.53;21122.91;5055255;28;20244;-66
2023/08/17 01:36:11;;;;;;;8.50;7.75;;;;;;;-141.84;79.21;21214.38;5062558;28;20327;-67
2023/08/17 01:38:43;;;;;;;8.45;7.75;;;;;;;-141.84;79.26;21179.81;5062412;28;20234;-66
2023/08/17 01:41:15;;;;;;;8.43;7.72;;;;;;;-141.84;79.38;21165.59;5062760;28;20288;-67
2023/08/17 01:43:47;;;;;;;8.63;7.75;;;;;;;-141.84;79.90;21161.53;5055776;28;20209;-68
2023/08/17 01:46:17;;;;;;;8.82;8.05;;;;;;;-141.84;80.73;21110.69;5049805;28;20236;-66
2023/08/17 01:48:46;;;;;;;9.00;8.00;;;;;;;-141.84;80.16;21068.00;5042596;28;20232;-67
2023/08/17 01:51:19;;;;;;;8.45;7.65;;;;;;;-141.84;81.28;21108.66;5029448;28;20232;-66
2023/08/17 01:53:50;;;;;;;9.10;8.23;;;;;;;-141.84;80.82;21098.50;5023375;28;20283;-67
2023/08/17 01:56:17;;;;;;;8.80;8.10;;;;;;;-141.84;80.92;21086.31;5043101;28;20310;-67
2023/08/17 01:58:46;;;;;;;8.65;7.93;;;;;;;-141.84;82.17;21068.00;5042929;28;20239;-67
2023/08/17 02:01:14;;;;;;;9.40;8.60;;;;;;;-141.84;82.02;21092.41;5042746;28;20355;-67
2023/08/17 02:03:43;;;;;;;9.48;8.68;;;;;;;-141.84;80.46;21124.94;5034326;28;20272;-67
2023/08/17 02:06:11;;;;;;;9.63;8.70;;;;;;;-141.84;78.38;21202.19;5042482;28;20320;-67
2023/08/17 02:08:40;;;;;;;9.95;8.70;;;;;;;-141.84;78.71;21244.88;5043966;28;20313;-67
2023/08/17 02:11:10;;;;;;;9.40;8.55;;;;;;;-141.84;78.44;21238.78;5040580;28;20296;-67
2023/08/17 02:13:38;;;;;;;9.45;8.55;;;;;;;-141.84;79.14;21228.63;5015114;28;20352;-67
2023/08/17 02:16:07;;;;;;;8.07;7.38;;;;;;;-141.84;80.28;21179.81;5021705;28;20324;-68
2023/08/17 02:18:36;;;;;;;8.30;7.50;;;;;;;-141.84;81.20;21135.09;5036319;28;20224;-66
2023/08/17 02:21:04;;;;;;;9.27;8.48;;;;;;;-141.84;80.67;21161.53;5042448;28;20229;-66
2023/08/17 02:23:33;;;;;;;8.02;7.38;;;;;;;-141.84;80.59;21147.28;5034162;28;20243;-66
2023/08/17 02:26:01;;;;;;;8.48;7.78;;;;;;;-141.84;81.29;21159.50;5042009;28;20293;-65
2023/08/17 02:28:31;;;;;;;8.15;7.45;;;;;;;-141.84;79.93;21167.63;5044342;28;20301;-66
2023/08/17 02:31:00;;;;;;;8.02;7.28;;;;;;;-141.84;79.96;21157.47;5060710;28;20231;-66
2023/08/17 02:33:29;;;;;;;8.00;7.15;;;;;;;-141.84;79.47;21194.06;5058902;28;20233;-68
2023/08/17 02:35:57;;;;;;;3.83;3.50;;;;;;;-141.84;76.18;21222.53;5065822;28;20576;-68
2023/08/17 02:38:26;;;;;;;3.88;2.50;;;;;;;-141.84;75.47;21240.81;5066142;28;20228;-66
2023/08/17 02:40:54;;;;;;;1.80;1.70;;;;;;;-141.84;74.98;21271.31;5066341;28;20243;-67
2023/08/17 02:43:23;;;;;;;1.60;1.50;;;;;;;-141.84;75.76;21204.22;5058335;28;20315;-68
2023/08/17 02:45:53;;;;;;;2.47;1.40;;;;;;;-141.84;75.74;21222.53;5056825;28;20264;-66
2023/08/17 02:48:21;;;;;;;1.52;1.20;;;;;;;-141.84;75.77;21232.69;5025804;28;20809;-66
2023/08/17 02:50:50;;;;;;;1.50;1.17;;;;;;;-141.84;76.47;21167.63;5025980;28;20261;-68
2023/08/17 02:53:18;;;;;;;1.35;0.93;;;;;;;-141.84;76.96;21165.59;5025537;28;20233;-67
2023/08/17 02:55:47;;;;;;;0.85;0.85;;;;;;;-141.84;77.11;21153.41;5042476;28;20209;-67
2023/08/17 02:58:15;;;;;;;4.68;1.10;;;;;;;-141.84;77.80;21147.28;5045305;28;20241;-66
2023/08/17 03:00:44;;;;;;;2.88;1.55;;;;;;;-141.84;81.48;21029.38;5045203;28;20237;-65
2023/08/17 03:03:13;;;;;;;2.65;1.50;;;;;;;-141.84;83.82;20962.28;5045540;28;20232;-66
2023/08/17 03:05:42;;;;;;;2.25;1.60;;;;;;;-141.84;85.75;20931.78;5046429;28;21014;-66
2023/08/17 03:08:10;;;;;;;1.48;1.25;;;;;;;-141.84;86.37;20866.75;5045447;28;20243;-66
2023/08/17 03:10:39;;;;;;;5.05;1.92;;;;;;;-141.84;88.04;20817.94;5045678;28;20236;-65
2023/08/17 03:13:08;;;;;;;4.93;1.90;;;;;;;-141.84;89.12;20836.25;5027115;28;20288;-66
2023/08/17 03:15:39;;;;;;;2.95;2.30;;;;;;;-141.84;90.74;20767.13;5017178;28;20236;-67
2023/08/17 03:18:08;;;;;;;3.85;2.20;;;;;;;-141.84;91.51;20752.91;5035400;28;20229;-67
2023/08/17 03:20:38;;;;;;;2.20;2.00;;;;;;;-141.84;92.83;20787.47;5045401;28;20438;-67
2023/08/17 03:23:07;;;;;;;4.25;3.72;;;;;;;-141.84;92.52;20738.66;5045343;28;20316;-66
2023/08/17 03:25:36;;;;;;;2.70;2.08;;;;;;;-141.84;93.03;20724.44;5037790;28;20205;-66
2023/08/17 03:28:04;;;;;;;4.60;2.13;;;;;;;-141.84;93.68;20726.47;5044116;28;20298;-67
2023/08/17 03:30:33;;;;;;;2.70;2.50;;;;;;;-141.84;94.20;20748.84;5055764;28;20798;-67
2023/08/17 03:33:01;;;;;;;3.88;2.25;;;;;;;-141.84;93.96;20704.13;5065169;28;20314;-67
2023/08/17 03:35:30;;;;;;;3.35;2.20;;;;;;;-141.84;94.72;20718.34;5057707;28;20224;-66
2023/08/17 03:38:00;;;;;;;5.63;2.70;;;;;;;-141.84;95.40;20659.38;5065074;28;20629;-66
2023/08/17 03:40:28;;;;;;;3.97;2.60;;;;;;;-141.84;96.22;20643.13;5064730;28;20750;-66
2023/08/17 03:42:57;;;;;;;3.63;3.25;;;;;;;-141.84;97.03;20639.06;5064852;28;20238;-68
2023/08/17 03:45:25;;;;;;;4.57;2.85;;;;;;;-141.84;97.55;20610.59;5051695;28;20265;-65
2023/08/17 03:47:54;;;;;;;3.40;3.10;;;;;;;-141.84;97.44;20588.25;5044438;28;20279;-66
2023/08/17 03:50:22;;;;;;;4.80;3.28;;;;;;;-141.84;97.55;20608.56;5044316;28;20303;-65
2023/08/17 03:52:51;;;;;;;3.40;2.80;;;;;;;-141.84;97.64;20630.94;5044927;28;20197;-65
2023/08/17 03:55:21;;;;;;;4.38;3.40;;;;;;;-141.84;97.90;20567.91;5043998;28;20320;-66
2023/08/17 03:57:49;;;;;;;4.07;3.17;;;;;;;-141.84;98.01;20618.72;5041326;28;20315;-65
2023/08/17 04:00:18;;;;;;;3.53;3.22;;;;;;;-141.84;97.81;20594.34;5049950;28;20271;-66
2023/08/17 04:02:46;;;;;;;3.30;3.00;;;;;;;-141.84;98.21;20578.09;5064262;28;20311;-66
2023/08/17 04:05:15;;;;;;;4.38;3.20;;;;;;;-141.84;98.25;20569.94;5056485;28;20248;-66
2023/08/17 04:07:44;;;;;;;4.45;3.08;;;;;;;-141.84;98.51;20586.22;5037432;28;20279;-67
2023/08/17 04:10:12;;;;;;;4.97;3.08;;;;;;;-141.84;97.86;20624.84;5043873;28;20225;-66
2023/08/17 04:12:42;;;;;;;3.20;2.85;;;;;;;-141.84;96.67;20669.56;5030003;28;20309;-65
2023/08/17 04:15:11;;;;;;;4.72;3.10;;;;;;;-141.84;96.85;20695.97;5022893;28;20300;-67
2023/08/17 04:17:39;;;;;;;4.28;3.33;;;;;;;-141.84;96.30;20659.38;5022790;28;20410;-65
2023/08/17 04:20:09;;;;;;;4.55;3.60;;;;;;;-141.84;96.49;20683.78;5044374;28;20213;-66
2023/08/17 04:22:37;;;;;;;3.63;2.85;;;;;;;-141.84;96.52;20649.22;5044064;28;20235;-66
2023/08/17 04:25:07;;;;;;;3.58;3.13;;;;;;;-141.84;96.90;20610.59;5044114;28;20275;-67
2023/08/17 04:27:35;;;;;;;4.15;3.17;;;;;;;-141.84;97.44;20604.50;5036353;28;20304;-66
2023/08/17 04:30:06;;;;;;;3.75;3.30;;;;;;;-141.84;98.34;20610.59;5050749;28;20737;-69
2023/08/17 04:32:34;;;;;;;5.43;3.53;;;;;;;-141.84;98.78;20580.13;5063666;28;20229;-66
2023/08/17 04:35:03;;;;;;;4.35;3.20;;;;;;;-141.84;99.34;20513.03;5063807;28;20208;-66
2023/08/17 04:37:32;;;;;;;5.07;2.83;;;;;;;-141.84;99.43;20549.63;5056809;28;20299;-66
2023/08/17 04:40:00;;;;;;;3.60;2.55;;;;;;;-141.84;99.33;20519.13;5063018;28;20235;-66
2023/08/17 04:42:28;;;;;;;3.00;2.70;;;;;;;-141.84;99.85;20456.13;5063619;28;20236;-65
2023/08/17 04:44:57;;;;;;;2.60;2.40;;;;;;;-141.84;100.00;20454.09;5062032;28;20224;-66
2023/08/17 04:47:27;;;;;;;3.78;3.38;;;;;;;-141.84;100.00;20462.22;5035994;28;20312;-66
2023/08/17 04:49:56;;;;;;;4.63;3.40;;;;;;;-141.84;100.00;20476.44;5043348;28;20267;-66
2023/08/17 04:52:24;;;;;;;3.50;3.20;;;;;;;-141.84;100.00;20452.06;5043296;28;20300;-66
2023/08/17 04:54:53;;;;;;;4.07;2.75;;;;;;;-141.84;100.00;20423.59;5043353;28;20275;-66
2023/08/17 04:57:21;;;;;;;4.45;2.80;;;;;;;-141.84;100.00;20395.13;5052888;28;20667;-66
2023/08/17 04:59:50;;;;;;;3.70;2.65;;;;;;;-141.84;100.00;20458.16;5062915;28;20735;-66
2023/08/17 05:02:18;;;;;;;3.20;2.90;;;;;;;-141.84;100.00;20452.06;5063165;28;20315;-65
2023/08/17 05:04:49;;;;;;;6.03;3.05;;;;;;;-141.84;100.00;20464.25;5059290;28;20229;-67
2023/08/17 05:07:17;;;;;;;3.20;2.90;;;;;;;-141.84;100.00;20490.66;5042937;28;20759;-66
2023/08/17 05:09:46;;;;;;;5.50;3.20;;;;;;;-141.84;100.00;20421.56;5037885;28;20704;-65
2023/08/17 05:12:15;;;;;;;3.55;3.25;;;;;;;-141.84;100.00;20476.44;5032131;28;20230;-66
2023/08/17 05:14:43;;;;;;;4.60;2.78;;;;;;;-141.84;100.00;20468.31;5023949;28;20225;-66
2023/08/17 05:17:11;;;;;;;4.18;2.60;;;;;;;-141.84;100.00;20480.50;5025314;28;20213;-65
2023/08/17 05:19:41;;;;;;;4.63;2.75;;;;;;;-141.84;100.00;20456.13;5036829;28;20712;-66
2023/08/17 05:22:13;;;;;;;3.33;2.50;;;;;;;-141.84;99.84;20529.28;5042806;28;20229;-66
2023/08/17 05:24:41;;;;;;;3.92;2.97;;;;;;;-141.84;99.84;20488.63;5043140;28;20229;-65
2023/08/17 05:27:10;;;;;;;4.50;2.38;;;;;;;-141.84;99.76;20517.09;5042729;28;20309;-67
2023/08/17 05:29:38;;;;;;;2.88;2.67;;;;;;;-141.84;99.87;20519.13;5038387;28;20226;-66
2023/08/17 05:32:07;;;;;;;3.28;2.83;;;;;;;-141.84;100.00;20537.44;5062590;28;20228;-67
2023/08/17 05:34:36;;;;;;;3.70;3.00;;;;;;;-141.84;99.99;20557.75;5063293;28;20574;-66
2023/08/17 05:37:04;;;;;;;3.88;2.92;;;;;;;-141.84;99.15;20598.41;5062678;28;20228;-66
2023/08/17 05:39:34;;;;;;;2.78;2.38;;;;;;;-141.84;98.68;20598.41;5055485;28;20230;-67
2023/08/17 05:42:04;;;;;;;3.20;2.60;;;;;;;-141.84;98.93;20606.53;5062304;28;20624;-66
2023/08/17 05:44:32;;;;;;;2.80;2.08;;;;;;;-141.84;99.32;20576.03;5062462;28;20772;-66
2023/08/17 05:47:01;;;;;;;2.50;2.30;;;;;;;-141.84;97.90;20675.66;5043970;28;20483;-66
2023/08/17 05:49:29;;;;;;;2.65;2.17;;;;;;;-141.84;97.41;20643.13;5035664;28;20217;-66
2023/08/17 05:51:58;;;;;;;2.65;2.45;;;;;;;-141.84;97.80;20641.09;5042162;28;20719;-68
2023/08/17 05:54:26;;;;;;;2.40;2.20;;;;;;;-141.84;97.17;20667.53;5055144;28;20315;-69
2023/08/17 05:56:56;;;;;;;2.88;2.40;;;;;;;-141.84;96.57;20687.84;5042123;28;20225;-67
2023/08/17 05:59:24;;;;;;;3.72;2.38;;;;;;;-141.84;96.74;20738.66;5034718;28;20252;-69
2023/08/17 06:01:53;;;;;;;2.15;1.95;;;;;;;-141.84;96.96;20689.88;5042993;28;20201;-68
2023/08/17 06:04:21;;;;;;;3.38;2.10;;;;;;;-141.84;96.17;20716.31;5046813;28;20239;-69
2023/08/17 06:06:50;;;;;;;2.38;2.17;;;;;;;-141.84;95.83;20718.34;5047386;28;20224;-68
2023/08/17 06:09:19;;;;;;;3.17;2.00;;;;;;;-141.84;95.50;20728.50;5047020;28;20360;-69
2023/08/17 06:11:47;;;;;;;2.30;2.10;;;;;;;-141.84;94.82;20750.88;5045473;28;20283;-69
2023/08/17 06:14:17;;;;;;;2.40;2.20;;;;;;;-141.84;94.26;20726.47;5043061;28;20309;-68
2023/08/17 06:16:45;;;;;;;2.65;2.30;;;;;;;-141.84;94.77;20726.47;5026483;28;20281;-69
2023/08/17 06:19:14;;;;;;;2.88;2.00;;;;;;;-141.84;94.56;20740.69;5026342;28;20312;-68
2023/08/17 06:21:42;;;;;;;3.47;2.10;;;;;;;-141.84;93.52;20765.09;5033796;28;22799;-68
2023/08/17 06:24:10;;;;;;;2.28;2.08;;;;;;;-141.84;93.10;20738.66;5045949;28;20320;-67
2023/08/17 06:26:39;;;;;;;3.72;2.85;;;;;;;-141.84;92.12;20807.78;5045941;28;20730;-69
2023/08/17 06:29:07;;;;;;;3.10;2.75;;;;;;;-141.84;91.75;20779.31;5045989;28;20198;-68
2023/08/17 06:31:37;;;;;;;4.07;3.67;;;;;;;-141.84;92.22;20824.06;5058152;28;20292;-68
2023/08/17 06:34:06;;;;;;;4.63;4.30;;;;;;;-141.84;91.35;20844.38;5065903;28;20608;-67
2023/08/17 06:36:34;;;;;;;4.78;4.38;;;;;;;-141.84;90.47;20872.84;5066271;28;20656;-67
2023/08/17 06:39:04;;;;;;;5.00;4.60;;;;;;;-141.84;89.48;20929.75;5065586;28;20741;-68
2023/08/17 06:41:32;;;;;;;5.65;5.10;;;;;;;-141.84;88.93;20948.06;5058240;28;20659;-67
2023/08/17 06:44:01;;;;;;;7.45;6.82;;;;;;;-141.84;87.03;20964.31;5063274;28;20212;-66
2023/08/17 06:46:29;;;;;;;7.38;6.68;;;;;;;-141.84;86.78;21000.91;5045818;28;20224;-68
2023/08/17 06:48:59;;;;;;;7.55;6.80;;;;;;;-141.84;85.17;21029.38;5051059;28;20263;-67
2023/08/17 06:51:27;;;;;;;7.20;6.60;;;;;;;-141.84;85.73;21033.44;5057653;28;20323;-67
2023/08/17 06:53:56;;;;;;;7.95;7.25;;;;;;;-141.84;85.39;21035.47;5063409;28;20243;-68
2023/08/17 06:56:25;;;;;;;7.03;6.43;;;;;;;-141.84;85.64;21053.78;5045816;28;20221;-68
2023/08/17 06:58:53;;;;;;;7.65;7.05;;;;;;;-141.84;85.59;21080.19;5045763;28;20221;-67
2023/08/17 07:01:22;;;;;;;7.97;7.18;;;;;;;-141.84;85.48;21151.34;5042306;28;20316;-67
2023/08/17 07:03:50;;;;;;;9.63;7.45;;;;;;;-141.84;85.22;21204.22;5045599;28;20320;-67
2023/08/17 07:06:20;;;;;;;7.65;6.82;;;;;;;-141.84;82.29;21269.28;5045695;28;20229;-67
2023/08/17 07:08:48;;;;;;;8.05;7.35;;;;;;;-141.84;80.69;21330.28;5044888;28;20257;-67
2023/08/17 07:11:17;;;;;;;7.85;7.22;;;;;;;-141.84;80.49;21330.28;5044902;28;20798;-67
2023/08/17 07:13:45;;;;;;;8.23;7.13;;;;;;;-141.84;80.11;21360.78;5039276;28;20207;-68
2023/08/17 07:16:14;;;;;;;7.72;7.03;;;;;;;-141.84;79.50;21368.91;5045505;28;20229;-67
2023/08/17 07:18:43;;;;;;;8.13;7.43;;;;;;;-141.84;78.68;21419.72;5044914;28;20530;-68
2023/08/17 07:21:11;;;;;;;8.13;7.32;;;;;;;-141.84;78.76;21444.13;5045343;28;20704;-68
2023/08/17 07:23:46;;;;;;;8.95;8.15;;;;;;;-141.84;78.87;21407.53;5037188;28;20499;-67
2023/08/17 07:26:14;;;;;;;7.72;7.03;;;;;;;-141.84;77.82;21399.41;5045007;28;20643;-67
2023/08/17 07:28:42;;;;;;;8.40;7.72;;;;;;;-141.84;78.35;21385.16;5044982;28;20211;-68
2023/08/17 07:31:11;;;;;;;8.82;8.02;;;;;;;-141.84;77.85;21389.22;5044569;28;20298;-69
2023/08/17 07:33:40;;;;;;;9.05;8.13;;;;;;;-141.84;78.64;21399.41;5037312;28;20271;-68
2023/08/17 07:36:09;;;;;;;8.35;7.50;;;;;;;-141.84;78.63;21403.47;5044839;28;20710;-67
2023/08/17 07:38:37;;;;;;;9.55;8.70;;;;;;;-141.84;77.00;21411.59;5044326;28;20233;-68
2023/08/17 07:41:07;;;;;;;8.77;7.97;;;;;;;-141.84;77.59;21399.41;5044427;28;20345;-68
2023/08/17 07:43:35;;;;;;;8.48;7.72;;;;;;;-141.84;77.20;21419.72;5037721;28;20205;-68
2023/08/17 07:46:04;;;;;;;8.90;8.10;;;;;;;-141.84;77.94;21421.75;5045487;28;20755;-67
2023/08/17 07:48:33;;;;;;;9.38;8.55;;;;;;;-141.84;78.62;21364.84;5044860;28;20233;-68
2023/08/17 07:51:02;;;;;;;9.10;8.30;;;;;;;-141.84;78.80;21338.41;5044884;28;20240;-68
2023/08/17 07:53:30;;;;;;;9.15;8.35;;;;;;;-141.84;79.72;21326.22;5036713;28;20229;-68
2023/08/17 07:55:58;;;;;;;9.57;8.88;;;;;;;-141.84;80.18;21330.28;5044366;28;20296;-69
2023/08/17 07:58:28;;;;;;;11.30;9.07;;;;;;;-141.84;80.12;21336.38;5044674;28;20229;-67
2023/08/17 08:00:57;;;;;;;10.52;9.35;;;;;;;-141.84;79.61;21309.94;5044296;28;20681;-69
2023/08/17 08:03:26;;;;;;;11.23;10.32;;;;;;;-141.84;79.58;21316.03;5036704;28;20225;-67
2023/08/17 08:05:54;;;;;;;11.05;9.60;;;;;;;-141.84;79.61;21250.97;5043677;28;20268;-69
2023/08/17 08:08:22;;;;;;;11.63;10.63;;;;;;;-141.84;80.78;21187.97;5043589;28;20705;-68
2023/08/17 08:10:53;;;;;;;9.93;9.13;;;;;;;-141.84;81.29;21181.84;5044549;28;20209;-68
2023/08/17 08:13:22;;;;;;;11.90;10.80;;;;;;;-141.84;81.67;21216.41;5038086;28;20229;-65
2023/08/17 08:15:52;;;;;;;11.23;10.23;;;;;;;-141.84;81.41;21275.38;5028322;28;20261;-68
2023/08/17 08:18:20;;;;;;;12.02;11.02;;;;;;;-141.84;80.48;21259.13;5023653;28;20721;-69
2023/08/17 08:20:50;;;;;;;10.35;9.55;;;;;;;-141.84;79.79;21324.19;5031803;28;20746;-68
2023/08/17 08:23:18;;;;;;;11.90;10.45;;;;;;;-141.84;78.94;21350.59;5044009;28;20239;-68
2023/08/17 08:25:46;;;;;;;10.65;9.65;;;;;;;-141.84;79.27;21391.28;5039689;28;20229;-69
2023/08/17 08:28:15;;;;;;;10.63;9.73;;;;;;;-141.84;79.60;21385.16;5044246;28;20228;-69
2023/08/17 08:30:44;;;;;;;11.27;10.38;;;;;;;-141.84;77.21;21511.22;5056061;28;20789;-68
2023/08/17 08:33:14;;;;;;;10.85;9.95;;;;;;;-141.84;75.84;21588.50;5063919;28;20299;-69
2023/08/17 08:35:42;;;;;;;9.27;8.48;;;;;;;-141.84;76.28;21592.56;5055414;28;20236;-68
2023/08/17 08:38:11;;;;;;;11.07;10.07;;;;;;;-141.84;75.37;21608.81;5047359;28;20213;-68
2023/08/17 08:40:41;;;;;;;10.73;9.50;;;;;;;-141.84;74.14;21639.31;5044347;28;20204;-68
2023/08/17 08:43:10;;;;;;;11.48;10.38;;;;;;;-141.84;73.39;21692.19;5062442;28;20708;-69
2023/08/17 08:45:42;;;;;;;11.00;9.90;;;;;;;-141.84;73.72;21728.78;5049139;28;20344;-69
2023/08/17 08:48:13;;;;;;;12.70;10.20;;;;;;;-141.84;71.03;21895.53;5043720;28;20233;-68
2023/08/17 08:50:42;;;;;;;11.00;9.82;;;;;;;-141.84;70.59;21921.97;5043621;28;20224;-69
2023/08/17 08:53:15;;;;;;;9.95;9.10;;;;;;;-141.84;71.14;21826.41;5042756;28;20300;-68
2023/08/17 08:55:49;;;;;;;10.10;9.20;;;;;;;-141.84;72.62;21795.88;5036301;28;20581;-69
2023/08/17 08:58:19;;;;;;;10.10;9.23;;;;;;;-141.84;71.90;21816.22;5042949;28;20327;-68
2023/08/17 09:00:48;;;;;;;9.93;9.00;;;;;;;-141.84;70.71;21926.03;5042903;28;20239;-68
2023/08/17 09:03:20;;;;;;;10.32;9.48;;;;;;;-141.84;70.27;21991.09;5042896;28;20221;-69
2023/08/17 09:05:49;;;;;;;11.18;10.20;;;;;;;-141.84;67.91;22137.50;5040703;28;20237;-68
2023/08/17 09:08:23;;;;;;;11.07;10.18;;;;;;;-141.84;67.56;22153.78;5043167;28;20225;-69
2023/08/17 09:10:52;;;;;;;11.00;9.98;;;;;;;-141.84;68.42;22090.75;5043091;28;20198;-68
2023/08/17 09:13:20;;;;;;;11.35;10.52;;;;;;;-141.84;66.82;22113.13;5042106;28;20311;-67
2023/08/17 09:15:49;;;;;;;10.68;9.68;;;;;;;-141.84;68.17;22113.13;5023984;28;20605;-68
2023/08/17 09:18:19;;;;;;;10.77;9.88;;;;;;;-141.84;67.55;22198.53;5023074;28;20340;-68
2023/08/17 09:20:48;;;;;;;9.50;8.70;;;;;;;-141.84;67.34;22273.78;5030203;28;20302;-68
2023/08/17 09:23:19;;;;;;;9.55;8.63;;;;;;;-141.84;67.85;22292.06;5042770;28;20609;-68
2023/08/17 09:25:49;;;;;;;10.15;9.25;;;;;;;-141.84;67.00;22294.09;5039460;28;20286;-68
2023/08/17 09:28:20;;;;;;;9.80;8.90;;;;;;;-141.84;66.21;22263.59;5042989;28;20235;-69
2023/08/17 09:30:53;;;;;;;9.90;9.02;;;;;;;-141.84;66.98;22273.78;5055589;28;20230;-69
2023/08/17 09:33:24;;;;;;;10.80;9.82;;;;;;;-141.84;65.23;22363.25;5052572;28;20232;-67
2023/08/17 09:35:53;;;;;;;10.90;9.95;;;;;;;-141.84;65.77;22353.09;5042899;28;20252;-70
2023/08/17 09:38:27;;;;;;;10.20;9.35;;;;;;;-141.84;66.28;22324.59;5053249;28;20327;-68
2023/08/17 09:40:55;;;;;;;10.32;9.40;;;;;;;-141.84;64.54;22420.19;5062495;28;20631;-69
2023/08/17 09:43:27;;;;;;;10.07;9.25;;;;;;;-141.84;63.48;22525.94;5045377;28;20228;-69
2023/08/17 09:45:56;;;;;;;10.02;9.13;;;;;;;-141.84;63.48;22584.94;5042435;28;20286;-69
2023/08/17 09:48:26;;;;;;;10.10;9.30;;;;;;;-141.84;62.42;22680.53;5042125;28;20647;-70
2023/08/17 09:51:01;;;;;;;9.65;8.75;;;;;;;-141.84;62.87;22603.22;5042544;28;20765;-70
2023/08/17 09:53:30;;;;;;;9.80;8.85;;;;;;;-141.84;62.37;22645.94;5034497;28;20236;-70
2023/08/17 09:56:00;;;;;;;10.30;9.50;;;;;;;-141.84;62.42;22607.31;5042373;28;20235;-68
2023/08/17 09:58:28;;;;;;;8.95;8.15;;;;;;;-141.84;62.34;22582.91;5042714;28;20239;-73
2023/08/17 10:01:04;;;;;;;10.15;9.25;;;;;;;-141.84;62.79;22540.19;5042834;28;20237;-69
2023/08/17 10:03:35;;;;;;;9.25;8.45;;;;;;;-141.84;63.79;22422.22;5034947;28;20252;-68
2023/08/17 10:06:07;;;;;;;10.75;9.65;;;;;;;-141.84;63.95;22401.88;5042801;28;20245;-69
2023/08/17 10:08:40;;;;;;;10.52;9.73;;;;;;;-141.84;64.35;22379.53;5042226;28;20324;-69
2023/08/17 10:11:09;;;;;;;9.60;8.73;;;;;;;-141.84;65.63;22397.81;5040491;28;20262;-69
2023/08/17 10:13:44;;;;;;;10.07;9.20;;;;;;;-141.84;64.66;22422.22;5015276;28;20224;-69
2023/08/17 10:16:23;;;;;;;11.38;10.27;;;;;;;-141.84;65.70;22330.72;5022532;28;20228;-69
2023/08/17 10:19:06;;;;;;;10.05;9.23;;;;;;;-141.84;67.19;22275.81;5038576;28;20306;-69
2023/08/17 10:21:40;;;;;;;9.25;8.55;;;;;;;-141.84;67.34;22251.41;5035050;28;20228;-68
2023/08/17 10:24:09;;;;;;;10.02;9.13;;;;;;;-141.84;66.61;22261.56;5042286;28;20227;-67
2023/08/17 10:26:39;;;;;;;10.02;9.07;;;;;;;-141.84;67.00;22261.56;5042118;28;20235;-68
2023/08/17 10:29:08;;;;;;;9.88;9.07;;;;;;;-141.84;65.31;22298.16;5041900;28;20202;-69
2023/08/17 10:31:46;;;;;;;10.55;9.65;;;;;;;-141.84;66.08;22277.84;5015474;28;20209;-70
2023/08/17 10:34:17;;;;;;;9.73;8.82;;;;;;;-141.84;64.42;22355.13;5044013;28;20224;-69
2023/08/17 10:36:46;;;;;;;9.68;8.88;;;;;;;-141.84;65.65;22340.88;5062553;28;20315;-69
2023/08/17 10:39:22;;;;;;;10.50;9.60;;;;;;;-141.84;64.77;22367.31;5062575;28;20259;-67
2023/08/17 10:41:56;;;;;;;10.77;9.68;;;;;;;-141.84;64.73;22377.47;5061839;28;20228;-68
2023/08/17 10:44:42;;;;;;;10.77;9.88;;;;;;;-141.84;64.80;22377.47;5062106;28;20230;-67
2023/08/17 10:47:24;;;;;;;9.43;8.73;;;;;;;-141.84;65.18;22346.97;5042179;28;20233;-68
2023/08/17 10:49:57;;;;;;;9.85;8.95;;;;;;;-141.84;65.79;22314.44;5044758;28;20258;-68
2023/08/17 10:52:31;;;;;;;10.30;9.43;;;;;;;-141.84;65.46;22361.22;5025606;28;20305;-68
2023/08/17 10:55:01;;;;;;;10.57;9.77;;;;;;;-141.84;64.58;22383.59;5025780;28;20719;-68
2023/08/17 10:57:35;;;;;;;11.00;10.00;;;;;;;-141.84;64.78;22365.28;5031058;28;20240;-69
2023/08/17 11:00:16;;;;;;;9.63;8.88;;;;;;;-141.84;64.41;22361.22;5045551;28;20244;-69
2023/08/17 11:02:54;;;;;;;10.50;9.60;;;;;;;-141.84;64.14;22359.19;5048125;28;20229;-69
2023/08/17 11:05:44;;;;;;;10.48;9.48;;;;;;;-141.84;63.77;22361.22;5038418;28;20692;-67
2023/08/17 11:08:21;;;;;;;9.60;8.70;;;;;;;-141.84;64.89;22322.56;5045641;28;20232;-69
2023/08/17 11:10:57;;;;;;;8.93;8.23;;;;;;;-141.84;64.76;22387.66;5045489;28;20259;-68
2023/08/17 11:13:28;;;;;;;9.68;8.80;;;;;;;-141.84;65.00;22401.88;5038146;28;20282;-67
2023/08/17 11:15:58;;;;;;;9.75;8.95;;;;;;;-141.84;64.30;22422.22;5028031;28;20234;-68
2023/08/17 11:18:32;;;;;;;9.30;8.50;;;;;;;-141.84;64.19;22436.47;5025391;28;20241;-69
2023/08/17 11:21:03;;;;;;;9.65;8.75;;;;;;;-141.84;64.51;22477.13;5034311;28;20236;-69
2023/08/17 11:23:33;;;;;;;9.18;8.48;;;;;;;-141.84;62.58;22572.72;5037492;28;20239;-69
2023/08/17 11:26:02;;;;;;;9.05;8.35;;;;;;;-141.84;63.46;22591.03;5044929;28;20209;-68